Time;durP1;ratioP1;P1;durP2;ratioP2;P2;SDS_P1;SDS_P2;PMS_P1;PMS_P2;Temp;Humidity;BMP_temperature;BMP_pressure;BME280_temperature;BME280_humidity;BME280_pressure;Samples;Min_cycle;Max_cycle;Signal;HPM_P1;HPM_P2
2023/07/16 00:02:13;;;;;;;5.63;1.77;;;;;;;;;;5002161;28;20093;-82
2023/07/16 00:04:39;;;;;;;4.20;1.45;;;;;;;;;;5022220;28;20030;-78
2023/07/16 00:07:05;;;;;;;3.50;1.55;;;;;;;;;;5002865;28;20030;-80
2023/07/16 00:09:31;;;;;;;2.88;1.52;;;;;;;;;;5000913;28;20092;-82
2023/07/16 00:12:00;;;;;;;3.65;1.60;;;;;;;;;;5002047;28;20029;-80
2023/07/16 00:14:28;;;;;;;4.28;1.45;;;;;;;;;;5002010;28;20034;-80
2023/07/16 00:16:54;;;;;;;3.47;1.23;;;;;;;;;;5002956;28;20065;-83
2023/07/16 00:19:20;;;;;;;3.35;1.13;;;;;;;;;;5017830;28;20064;-81
2023/07/16 00:21:46;;;;;;;6.22;1.73;;;;;;;;;;5021356;28;20042;-79
2023/07/16 00:24:12;;;;;;;2.25;1.13;;;;;;;;;;5001796;28;20040;-81
2023/07/16 00:26:38;;;;;;;4.78;1.80;;;;;;;;;;5002295;28;20026;-82
2023/07/16 00:29:04;;;;;;;6.43;1.55;;;;;;;;;;5004791;28;20037;-76
2023/07/16 00:31:31;;;;;;;7.03;1.92;;;;;;;;;;5004305;28;20057;-82
2023/07/16 00:33:56;;;;;;;5.68;1.65;;;;;;;;;;5020924;28;20037;-83
2023/07/16 00:36:22;;;;;;;2.35;1.27;;;;;;;;;;5001323;28;20026;-78
2023/07/16 00:38:49;;;;;;;4.18;1.60;;;;;;;;;;4999474;28;20623;-82
2023/07/16 00:41:16;;;;;;;5.50;1.27;;;;;;;;;;5000794;28;20038;-82
2023/07/16 00:43:42;;;;;;;5.93;1.65;;;;;;;;;;4999357;28;20038;-82
2023/07/16 00:46:09;;;;;;;5.15;1.50;;;;;;;;;;4999761;28;20370;-79
2023/07/16 00:48:35;;;;;;;4.85;1.42;;;;;;;;;;5000003;28;20041;-81
2023/07/16 00:51:02;;;;;;;6.30;1.77;;;;;;;;;;5000818;28;20086;-82
2023/07/16 00:53:28;;;;;;;9.60;2.10;;;;;;;;;;5001838;28;20044;-82
2023/07/16 00:55:54;;;;;;;8.10;1.95;;;;;;;;;;5001351;28;20183;-80
2023/07/16 00:58:20;;;;;;;4.10;1.73;;;;;;;;;;5000387;28;20113;-80
2023/07/16 01:00:46;;;;;;;3.28;1.50;;;;;;;;;;5022047;28;20033;-81
2023/07/16 01:03:17;;;;;;;8.25;1.63;;;;;;;;;;5002908;28;20052;-78
2023/07/16 01:05:48;;;;;;;5.95;1.48;;;;;;;;;;5023241;28;20041;-81
2023/07/16 01:08:15;;;;;;;3.63;1.30;;;;;;;;;;5002513;28;20048;-80
2023/07/16 01:10:41;;;;;;;5.65;1.77;;;;;;;;;;4999852;28;20034;-83
2023/07/16 01:13:12;;;;;;;6.28;1.35;;;;;;;;;;5002359;28;20032;-83
2023/07/16 01:15:38;;;;;;;8.05;1.83;;;;;;;;;;5002928;28;20049;-82
2023/07/16 01:18:04;;;;;;;8.30;1.88;;;;;;;;;;4999471;28;20340;-81
2023/07/16 01:20:30;;;;;;;4.90;1.38;;;;;;;;;;5001694;28;20042;-79
2023/07/16 01:22:58;;;;;;;5.30;1.40;;;;;;;;;;5002259;28;20037;-80
2023/07/16 01:25:37;;;;;;;5.65;1.15;;;;;;;;;;5020995;28;20034;-79
2023/07/16 01:28:03;;;;;;;11.80;2.13;;;;;;;;;;4998823;28;20146;-80
2023/07/16 01:30:29;;;;;;;5.85;1.42;;;;;;;;;;5003627;28;20046;-82
2023/07/16 01:32:56;;;;;;;5.18;1.80;;;;;;;;;;5003693;28;20038;-79
2023/07/16 01:35:22;;;;;;;5.20;1.45;;;;;;;;;;5004118;28;20156;-80
2023/07/16 01:37:48;;;;;;;5.90;1.35;;;;;;;;;;5001051;28;20112;-81
2023/07/16 01:40:14;;;;;;;7.28;1.48;;;;;;;;;;5004931;28;20038;-82
2023/07/16 01:42:40;;;;;;;4.93;1.48;;;;;;;;;;5004388;28;20045;-78
2023/07/16 01:45:06;;;;;;;3.20;1.30;;;;;;;;;;5004189;28;20107;-80
2023/07/16 01:47:45;;;;;;;2.88;1.20;;;;;;;;;;5004185;28;20022;-82
2023/07/16 01:50:11;;;;;;;5.63;1.40;;;;;;;;;;5022231;28;20053;-79
2023/07/16 01:52:37;;;;;;;5.70;1.90;;;;;;;;;;5002329;28;20401;-79
2023/07/16 01:55:03;;;;;;;4.50;1.65;;;;;;;;;;5000820;28;20104;-80
2023/07/16 01:57:31;;;;;;;4.18;1.33;;;;;;;;;;5003155;28;20035;-79
2023/07/16 02:00:00;;;;;;;3.25;1.33;;;;;;;;;;5006115;28;20041;-82
2023/07/16 02:02:26;;;;;;;2.30;1.30;;;;;;;;;;5007288;28;20472;-79
2023/07/16 02:04:52;;;;;;;10.75;1.77;;;;;;;;;;5003950;28;20056;-82
2023/07/16 02:07:18;;;;;;;6.68;2.20;;;;;;;;;;5004837;28;20038;-80
2023/07/16 02:09:44;;;;;;;5.80;1.83;;;;;;;;;;5019021;28;20045;-80
2023/07/16 02:12:10;;;;;;;4.32;1.55;;;;;;;;;;5003455;28;20525;-81
2023/07/16 02:14:35;;;;;;;7.07;1.42;;;;;;;;;;5003811;28;20034;-79
2023/07/16 02:17:02;;;;;;;4.60;2.10;;;;;;;;;;5001283;28;20806;-80
2023/07/16 02:19:27;;;;;;;3.20;1.25;;;;;;;;;;5003082;28;20081;-81
2023/07/16 02:21:54;;;;;;;3.65;1.40;;;;;;;;;;5004123;28;20057;-80
2023/07/16 02:24:20;;;;;;;3.50;1.45;;;;;;;;;;5003138;28;20034;-77
2023/07/16 02:26:46;;;;;;;4.55;1.70;;;;;;;;;;5003419;28;20033;-78
2023/07/16 02:29:14;;;;;;;4.18;1.50;;;;;;;;;;5003463;28;20034;-79
2023/07/16 02:31:40;;;;;;;4.40;1.73;;;;;;;;;;5002722;28;20033;-80
2023/07/16 02:34:06;;;;;;;3.90;1.20;;;;;;;;;;5005325;28;20030;-79
2023/07/16 02:36:32;;;;;;;7.75;1.75;;;;;;;;;;5005972;28;20122;-80
2023/07/16 02:39:00;;;;;;;3.58;1.98;;;;;;;;;;5003179;28;20593;-81
2023/07/16 02:41:29;;;;;;;3.28;1.50;;;;;;;;;;5022883;28;20030;-79
2023/07/16 02:44:02;;;;;;;4.30;1.60;;;;;;;;;;5004650;28;20033;-79
2023/07/16 02:46:28;;;;;;;6.80;1.50;;;;;;;;;;5005933;28;20068;-79
2023/07/16 02:48:54;;;;;;;5.88;1.80;;;;;;;;;;5005751;28;20100;-79
2023/07/16 02:51:20;;;;;;;6.68;1.63;;;;;;;;;;5006219;28;20033;-78
2023/07/16 02:53:48;;;;;;;8.52;1.48;;;;;;;;;;5005382;28;20036;-78
2023/07/16 02:56:14;;;;;;;7.90;2.55;;;;;;;;;;5004861;28;20033;-78
2023/07/16 02:58:43;;;;;;;3.22;1.35;;;;;;;;;;5005522;28;20037;-78
2023/07/16 03:01:09;;;;;;;6.00;1.92;;;;;;;;;;5019771;28;20037;-79
2023/07/16 03:03:37;;;;;;;4.45;1.33;;;;;;;;;;5004653;28;20092;-78
2023/07/16 03:06:03;;;;;;;5.03;1.35;;;;;;;;;;5004897;28;20051;-76
2023/07/16 03:08:31;;;;;;;2.55;1.23;;;;;;;;;;5005131;28;20094;-79
2023/07/16 03:10:57;;;;;;;7.07;1.70;;;;;;;;;;5006893;28;21565;-78
2023/07/16 03:13:23;;;;;;;5.10;1.48;;;;;;;;;;5002165;28;20049;-78
2023/07/16 03:15:51;;;;;;;9.55;1.90;;;;;;;;;;5007004;28;20033;-79
2023/07/16 03:18:19;;;;;;;4.95;1.63;;;;;;;;;;5004314;28;20045;-78
2023/07/16 03:20:45;;;;;;;4.43;1.98;;;;;;;;;;5005359;28;20037;-78
2023/07/16 03:23:11;;;;;;;8.20;1.52;;;;;;;;;;5012756;28;20046;-77
2023/07/16 03:25:39;;;;;;;6.10;1.63;;;;;;;;;;5002810;28;20049;-78
2023/07/16 03:28:05;;;;;;;3.80;1.48;;;;;;;;;;5005515;28;20041;-77
2023/07/16 03:30:32;;;;;;;3.53;1.50;;;;;;;;;;5008716;28;20034;-77
2023/07/16 03:32:58;;;;;;;8.48;1.98;;;;;;;;;;5006028;28;20058;-78
2023/07/16 03:35:25;;;;;;;6.32;1.95;;;;;;;;;;5007289;28;20119;-79
2023/07/16 03:37:51;;;;;;;6.35;1.50;;;;;;;;;;5008127;28;20077;-76
2023/07/16 03:40:18;;;;;;;5.60;1.40;;;;;;;;;;5017898;28;20037;-77
2023/07/16 03:42:44;;;;;;;6.40;1.65;;;;;;;;;;5007474;28;20038;-77
2023/07/16 03:45:14;;;;;;;4.28;1.40;;;;;;;;;;5009994;28;20030;-77
2023/07/16 03:47:43;;;;;;;4.07;1.52;;;;;;;;;;5031736;28;20527;-77
2023/07/16 03:50:09;;;;;;;6.68;1.92;;;;;;;;;;5011105;28;20045;-76
2023/07/16 03:52:35;;;;;;;2.95;1.30;;;;;;;;;;5010677;28;20058;-78
2023/07/16 03:55:01;;;;;;;5.20;2.00;;;;;;;;;;5011487;28;20145;-78
2023/07/16 03:57:31;;;;;;;7.95;2.13;;;;;;;;;;5011588;28;20032;-76
2023/07/16 03:59:59;;;;;;;7.97;1.80;;;;;;;;;;5013937;28;20037;-77
2023/07/16 04:02:25;;;;;;;7.07;1.92;;;;;;;;;;5006015;28;20033;-78
2023/07/16 04:04:51;;;;;;;4.90;1.65;;;;;;;;;;5009715;28;20462;-78
2023/07/16 04:07:18;;;;;;;6.97;1.98;;;;;;;;;;5011957;28;20033;-76
2023/07/16 04:09:44;;;;;;;5.65;1.88;;;;;;;;;;5017433;28;20035;-78
2023/07/16 04:12:10;;;;;;;7.63;1.83;;;;;;;;;;5013757;28;20089;-78
2023/07/16 04:14:36;;;;;;;6.75;2.15;;;;;;;;;;5017243;28;20034;-78
2023/07/16 04:17:01;;;;;;;6.00;2.03;;;;;;;;;;5014239;28;20037;-77
2023/07/16 04:19:28;;;;;;;5.55;2.10;;;;;;;;;;5016122;28;20128;-79
2023/07/16 04:21:57;;;;;;;6.57;1.77;;;;;;;;;;5014455;28;20030;-79
2023/07/16 04:24:26;;;;;;;7.85;2.05;;;;;;;;;;5014149;28;20022;-78
2023/07/16 04:26:53;;;;;;;4.43;1.77;;;;;;;;;;5013614;28;20025;-78
2023/07/16 04:29:18;;;;;;;9.85;2.30;;;;;;;;;;5012269;28;20033;-79
2023/07/16 04:31:44;;;;;;;6.13;1.73;;;;;;;;;;5034864;28;20053;-77
2023/07/16 04:34:13;;;;;;;7.72;2.03;;;;;;;;;;5009535;28;20459;-77
2023/07/16 04:36:39;;;;;;;5.43;1.63;;;;;;;;;;5007993;28;20057;-78
2023/07/16 04:39:05;;;;;;;7.70;2.03;;;;;;;;;;5009139;28;20857;-77
2023/07/16 04:41:31;;;;;;;6.78;1.63;;;;;;;;;;5028729;28;21092;-78
2023/07/16 04:43:59;;;;;;;7.50;1.83;;;;;;;;;;5024638;28;20750;-78
2023/07/16 04:46:25;;;;;;;3.10;1.40;;;;;;;;;;5006000;28;20033;-77
2023/07/16 04:48:53;;;;;;;8.98;2.30;;;;;;;;;;5002332;28;20033;-77
2023/07/16 04:51:21;;;;;;;10.32;2.10;;;;;;;;;;5009966;28;20046;-79
2023/07/16 04:53:47;;;;;;;5.68;1.95;;;;;;;;;;5002930;28;20121;-77
2023/07/16 04:56:13;;;;;;;5.65;2.13;;;;;;;;;;5002379;28;20129;-78
2023/07/16 04:58:39;;;;;;;8.63;2.28;;;;;;;;;;5014296;28;20034;-79
2023/07/16 05:01:05;;;;;;;12.35;2.17;;;;;;;;;;4999410;28;20042;-76
2023/07/16 05:03:34;;;;;;;5.05;2.00;;;;;;;;;;5013956;28;20034;-75
2023/07/16 05:06:00;;;;;;;7.90;2.45;;;;;;;;;;5000863;28;20034;-78
2023/07/16 05:08:26;;;;;;;7.05;1.90;;;;;;;;;;4999244;28;20033;-77
2023/07/16 05:10:52;;;;;;;7.20;2.10;;;;;;;;;;5001165;28;20034;-79
2023/07/16 05:13:20;;;;;;;6.38;1.83;;;;;;;;;;4999469;28;20045;-78
2023/07/16 05:15:46;;;;;;;5.13;2.13;;;;;;;;;;5003397;28;20042;-79
2023/07/16 05:18:15;;;;;;;4.20;2.22;;;;;;;;;;4999746;28;20069;-81
2023/07/16 05:20:40;;;;;;;6.78;2.20;;;;;;;;;;5019100;28;20030;-80
2023/07/16 05:23:06;;;;;;;7.40;1.80;;;;;;;;;;5001225;28;20105;-78
2023/07/16 05:25:35;;;;;;;5.43;2.20;;;;;;;;;;4999367;28;20030;-80
2023/07/16 05:28:03;;;;;;;6.78;2.15;;;;;;;;;;5002173;28;20030;-79
2023/07/16 05:30:32;;;;;;;4.72;1.90;;;;;;;;;;5003413;28;20042;-79
2023/07/16 05:32:58;;;;;;;7.32;2.05;;;;;;;;;;5020487;28;20140;-78
2023/07/16 05:35:24;;;;;;;11.07;2.20;;;;;;;;;;5002361;28;21848;-81
2023/07/16 05:37:50;;;;;;;8.57;2.20;;;;;;;;;;5019635;28;20099;-79
2023/07/16 05:40:16;;;;;;;7.18;2.58;;;;;;;;;;5003857;28;20042;-79
2023/07/16 05:42:42;;;;;;;8.80;2.45;;;;;;;;;;5001567;28;20034;-81
2023/07/16 05:45:08;;;;;;;11.07;2.45;;;;;;;;;;5001867;28;20030;-78
2023/07/16 05:47:37;;;;;;;14.48;2.55;;;;;;;;;;5003612;28;20030;-79
2023/07/16 05:50:03;;;;;;;8.05;2.60;;;;;;;;;;5003778;28;20035;-80
2023/07/16 05:52:31;;;;;;;6.90;2.63;;;;;;;;;;5004074;28;20037;-81
2023/07/16 05:54:57;;;;;;;7.65;2.60;;;;;;;;;;5003617;28;21759;-80
2023/07/16 05:57:23;;;;;;;7.63;2.20;;;;;;;;;;5002013;28;20038;-77
2023/07/16 05:59:49;;;;;;;6.72;2.67;;;;;;;;;;5002715;28;20041;-79
2023/07/16 06:02:18;;;;;;;14.23;3.15;;;;;;;;;;5003209;28;20025;-81
2023/07/16 06:04:44;;;;;;;9.00;2.95;;;;;;;;;;5002582;28;20418;-80
2023/07/16 06:07:10;;;;;;;7.70;2.88;;;;;;;;;;5003293;28;20037;-79
2023/07/16 06:09:38;;;;;;;5.10;2.88;;;;;;;;;;5001865;28;20034;-79
2023/07/16 06:12:04;;;;;;;7.60;2.85;;;;;;;;;;5001408;28;20041;-81
2023/07/16 06:14:32;;;;;;;8.35;3.05;;;;;;;;;;5002628;28;20025;-78
2023/07/16 06:17:00;;;;;;;7.50;3.42;;;;;;;;;;5002714;28;20052;-83
2023/07/16 06:19:26;;;;;;;7.57;3.30;;;;;;;;;;5004139;28;20124;-79
2023/07/16 06:21:52;;;;;;;8.50;3.58;;;;;;;;;;5002517;28;20529;-82
2023/07/16 06:24:18;;;;;;;11.65;4.10;;;;;;;;;;5022834;28;20037;-79
2023/07/16 06:26:44;;;;;;;6.45;2.95;;;;;;;;;;4999604;28;20034;-81
2023/07/16 06:29:10;;;;;;;8.50;3.67;;;;;;;;;;5018100;28;20108;-81
2023/07/16 06:31:36;;;;;;;7.93;3.40;;;;;;;;;;5005076;28;20061;-80
2023/07/16 06:34:02;;;;;;;7.70;3.95;;;;;;;;;;4999948;28;20634;-81
2023/07/16 06:36:28;;;;;;;8.00;3.55;;;;;;;;;;5001864;28;20026;-82
2023/07/16 06:38:54;;;;;;;11.60;3.88;;;;;;;;;;5001844;28;20034;-78
2023/07/16 06:41:20;;;;;;;7.65;3.40;;;;;;;;;;5004025;28;20029;-82
2023/07/16 06:43:46;;;;;;;8.93;3.85;;;;;;;;;;5001271;28;20042;-81
2023/07/16 06:46:15;;;;;;;14.02;4.25;;;;;;;;;;5003164;28;20038;-82
2023/07/16 06:48:41;;;;;;;11.30;3.90;;;;;;;;;;5022128;28;20117;-81
2023/07/16 06:51:07;;;;;;;9.52;4.18;;;;;;;;;;5002198;28;20117;-78
2023/07/16 06:53:36;;;;;;;10.45;4.45;;;;;;;;;;5000493;28;20172;-78
2023/07/16 06:56:02;;;;;;;8.90;3.97;;;;;;;;;;5000749;28;20034;-78
2023/07/16 06:58:33;;;;;;;8.38;4.30;;;;;;;;;;5003707;28;20048;-79
2023/07/16 07:00:59;;;;;;;11.02;3.63;;;;;;;;;;5003432;28;20483;-76
2023/07/16 07:03:25;;;;;;;7.72;3.50;;;;;;;;;;5001610;28;20038;-78
2023/07/16 07:05:51;;;;;;;9.50;4.07;;;;;;;;;;5021235;28;20116;-79
2023/07/16 07:08:17;;;;;;;11.00;4.10;;;;;;;;;;5005642;28;20366;-77
2023/07/16 07:10:43;;;;;;;9.18;3.22;;;;;;;;;;5001708;28;20041;-80
2023/07/16 07:13:08;;;;;;;8.55;3.83;;;;;;;;;;5002083;28;20040;-76
2023/07/16 07:15:34;;;;;;;7.90;3.95;;;;;;;;;;5002080;28;20041;-79
2023/07/16 07:18:00;;;;;;;11.25;4.68;;;;;;;;;;5002692;28;20046;-78
2023/07/16 07:20:26;;;;;;;8.60;3.72;;;;;;;;;;5002420;28;20386;-77
2023/07/16 07:22:55;;;;;;;10.15;3.63;;;;;;;;;;5007044;28;20038;-76
2023/07/16 07:25:21;;;;;;;7.60;3.33;;;;;;;;;;5000678;28;20061;-76
2023/07/16 07:27:49;;;;;;;11.48;3.88;;;;;;;;;;5002213;28;20058;-80
2023/07/16 07:30:15;;;;;;;11.52;4.45;;;;;;;;;;5000563;28;20034;-77
2023/07/16 07:32:43;;;;;;;9.48;3.67;;;;;;;;;;5017787;28;20099;-78
2023/07/16 07:35:12;;;;;;;9.70;3.83;;;;;;;;;;5002940;28;20033;-82
2023/07/16 07:37:38;;;;;;;7.05;3.65;;;;;;;;;;5003495;28;20034;-84
2023/07/16 07:40:04;;;;;;;8.23;3.30;;;;;;;;;;5006333;28;20462;-83
2023/07/16 07:42:30;;;;;;;7.68;3.63;;;;;;;;;;4998879;28;20049;-83
2023/07/16 07:44:56;;;;;;;9.13;3.60;;;;;;;;;;5001569;28;20101;-87
2023/07/16 07:47:22;;;;;;;8.00;3.40;;;;;;;;;;5002844;28;20039;-81
2023/07/16 07:49:48;;;;;;;8.55;3.22;;;;;;;;;;5000392;28;20041;-86
2023/07/16 07:52:14;;;;;;;10.18;3.60;;;;;;;;;;5000520;28;20038;-83
2023/07/16 07:54:40;;;;;;;9.30;3.35;;;;;;;;;;5004632;28;20121;-76
2023/07/16 07:57:06;;;;;;;7.22;3.40;;;;;;;;;;5002248;28;20594;-84
2023/07/16 07:59:32;;;;;;;6.00;3.88;;;;;;;;;;5000790;28;20030;-85
2023/07/16 08:02:01;;;;;;;5.60;3.22;;;;;;;;;;5002339;28;20359;-82
2023/07/16 08:04:27;;;;;;;11.57;3.63;;;;;;;;;;5000529;28;20038;-86
2023/07/16 08:06:54;;;;;;;6.75;3.60;;;;;;;;;;5000413;28;20030;-85
2023/07/16 08:09:20;;;;;;;10.52;3.55;;;;;;;;;;4999890;28;20045;-85
2023/07/16 08:11:46;;;;;;;11.70;3.67;;;;;;;;;;5003224;28;20038;-81
2023/07/16 08:14:12;;;;;;;7.65;3.75;;;;;;;;;;4999183;28;20037;-86
2023/07/16 08:16:38;;;;;;;7.07;3.50;;;;;;;;;;5014994;28;20190;-80
2023/07/16 08:19:06;;;;;;;7.80;3.28;;;;;;;;;;4999197;28;20066;-83
2023/07/16 08:21:35;;;;;;;10.80;4.47;;;;;;;;;;5019002;28;20480;-84
2023/07/16 08:24:04;;;;;;;9.70;3.40;;;;;;;;;;5000007;28;20025;-84
2023/07/16 08:26:30;;;;;;;7.38;3.90;;;;;;;;;;5003775;28;20030;-85
2023/07/16 08:28:56;;;;;;;7.63;3.40;;;;;;;;;;4998256;28;20026;-83
2023/07/16 08:31:22;;;;;;;6.05;3.70;;;;;;;;;;4998591;28;20429;-85
2023/07/16 08:33:48;;;;;;;7.80;3.67;;;;;;;;;;4999015;28;20053;-84
2023/07/16 08:36:14;;;;;;;8.93;3.33;;;;;;;;;;5003343;28;20366;-84
2023/07/16 08:38:40;;;;;;;7.90;3.78;;;;;;;;;;4998721;28;20038;-86
2023/07/16 08:41:06;;;;;;;8.05;3.13;;;;;;;;;;4998943;28;20033;-83
2023/07/16 08:43:35;;;;;;;8.13;3.30;;;;;;;;;;4997426;28;20041;-82
2023/07/16 08:46:05;;;;;;;10.05;3.58;;;;;;;;;;5002661;28;20109;-80
2023/07/16 08:48:31;;;;;;;6.55;3.42;;;;;;;;;;5002862;28;20430;-84
2023/07/16 08:50:59;;;;;;;8.98;3.30;;;;;;;;;;5001944;28;20037;-84
2023/07/16 08:53:25;;;;;;;5.93;3.45;;;;;;;;;;5002119;28;20037;-82
2023/07/16 08:55:51;;;;;;;5.43;3.20;;;;;;;;;;5003502;28;20049;-82
2023/07/16 08:58:17;;;;;;;8.38;4.15;;;;;;;;;;5002605;28;21233;-84
2023/07/16 09:00:44;;;;;;;5.82;2.90;;;;;;;;;;5000436;28;20057;-81
2023/07/16 09:03:13;;;;;;;7.90;3.33;;;;;;;;;;5001711;28;20033;-79
2023/07/16 09:05:39;;;;;;;7.18;2.92;;;;;;;;;;5002765;28;20488;-80
2023/07/16 09:08:06;;;;;;;6.68;2.85;;;;;;;;;;5002976;28;21618;-81
2023/07/16 09:10:32;;;;;;;4.72;2.75;;;;;;;;;;5002245;28;20030;-83
2023/07/16 09:13:01;;;;;;;7.90;3.13;;;;;;;;;;5003116;28;20034;-80
2023/07/16 09:15:31;;;;;;;9.02;2.92;;;;;;;;;;5002073;28;21566;-83
2023/07/16 09:17:57;;;;;;;5.63;2.65;;;;;;;;;;5002784;28;20033;-82
2023/07/16 09:20:23;;;;;;;5.10;2.72;;;;;;;;;;5001216;28;20034;-80
2023/07/16 09:22:49;;;;;;;12.20;2.78;;;;;;;;;;5014196;28;20493;-80
2023/07/16 09:25:16;;;;;;;9.75;3.03;;;;;;;;;;4997832;28;20030;-80
2023/07/16 09:27:42;;;;;;;6.53;2.97;;;;;;;;;;5002836;28;20041;-86
2023/07/16 09:30:15;;;;;;;7.50;3.03;;;;;;;;;;4998858;28;20030;-81
2023/07/16 09:32:41;;;;;;;5.75;2.92;;;;;;;;;;4997016;28;20042;-82
2023/07/16 09:35:10;;;;;;;7.20;2.75;;;;;;;;;;4995339;28;20129;-85
2023/07/16 09:37:37;;;;;;;5.78;2.65;;;;;;;;;;4995448;28;20029;-83
2023/07/16 09:40:06;;;;;;;5.15;2.78;;;;;;;;;;5014847;28;20036;-83
2023/07/16 09:42:34;;;;;;;6.00;3.05;;;;;;;;;;4997496;28;20041;-82
2023/07/16 09:45:01;;;;;;;5.53;2.47;;;;;;;;;;4998060;28;20462;-77
2023/07/16 09:47:27;;;;;;;9.10;3.10;;;;;;;;;;4995633;28;20853;-82
2023/07/16 09:49:56;;;;;;;5.70;2.53;;;;;;;;;;5014572;28;20042;-81
2023/07/16 09:52:22;;;;;;;5.50;2.38;;;;;;;;;;4997986;28;20084;-87
2023/07/16 09:54:52;;;;;;;4.15;2.30;;;;;;;;;;4996682;28;20402;-77
2023/07/16 09:57:18;;;;;;;5.70;2.53;;;;;;;;;;4998301;28;20379;-78
2023/07/16 09:59:46;;;;;;;5.97;2.40;;;;;;;;;;5001685;28;20473;-79
2023/07/16 10:02:12;;;;;;;6.78;3.03;;;;;;;;;;5013071;28;20040;-78
2023/07/16 10:04:39;;;;;;;7.20;2.40;;;;;;;;;;4998006;28;20153;-81
2023/07/16 10:07:05;;;;;;;5.25;2.15;;;;;;;;;;4998925;28;20025;-77
2023/07/16 10:09:35;;;;;;;7.68;2.67;;;;;;;;;;4997893;28;20038;-81
2023/07/16 10:12:10;;;;;;;7.15;2.80;;;;;;;;;;4997736;28;20033;-80
2023/07/16 10:14:41;;;;;;;4.00;2.20;;;;;;;;;;5001432;28;20069;-78
2023/07/16 10:17:07;;;;;;;4.88;2.10;;;;;;;;;;4997799;28;20041;-76
2023/07/16 10:19:48;;;;;;;5.45;2.13;;;;;;;;;;5001773;28;20037;-81
2023/07/16 10:22:15;;;;;;;5.57;2.50;;;;;;;;;;5019615;28;20060;-80
2023/07/16 10:24:41;;;;;;;4.47;2.38;;;;;;;;;;5000265;28;20057;-79
2023/07/16 10:27:09;;;;;;;7.13;2.15;;;;;;;;;;5006105;28;20034;-79
2023/07/16 10:29:36;;;;;;;4.78;2.35;;;;;;;;;;5003336;28;20029;-81
2023/07/16 10:32:02;;;;;;;4.93;2.20;;;;;;;;;;5003160;28;20034;-80
2023/07/16 10:34:28;;;;;;;4.65;2.50;;;;;;;;;;5023425;28;20034;-78
2023/07/16 10:36:54;;;;;;;4.32;2.40;;;;;;;;;;5005047;28;20036;-79
2023/07/16 10:39:20;;;;;;;4.53;2.85;;;;;;;;;;5002781;28;20026;-80
2023/07/16 10:41:48;;;;;;;6.28;2.28;;;;;;;;;;4999297;28;20121;-80
2023/07/16 10:44:15;;;;;;;4.78;2.38;;;;;;;;;;5004765;28;20022;-80
2023/07/16 10:46:45;;;;;;;4.55;2.08;;;;;;;;;;5001741;28;20025;-78
2023/07/16 10:49:13;;;;;;;4.05;2.30;;;;;;;;;;5002081;28;20030;-79
2023/07/16 10:51:39;;;;;;;7.65;2.50;;;;;;;;;;5001483;28;20094;-79
2023/07/16 10:54:05;;;;;;;11.88;3.00;;;;;;;;;;5002603;28;20458;-80
2023/07/16 10:56:34;;;;;;;6.43;2.20;;;;;;;;;;4999084;28;20034;-80
2023/07/16 10:59:00;;;;;;;4.93;2.60;;;;;;;;;;5001374;28;20034;-80
2023/07/16 11:01:31;;;;;;;7.03;2.50;;;;;;;;;;5001668;28;20049;-79
2023/07/16 11:04:03;;;;;;;2.70;1.95;;;;;;;;;;5004557;28;20021;-78
2023/07/16 11:06:29;;;;;;;6.82;2.30;;;;;;;;;;5001650;28;20026;-78
2023/07/16 11:08:58;;;;;;;3.85;2.30;;;;;;;;;;5016107;28;20022;-77
2023/07/16 11:11:30;;;;;;;4.57;2.42;;;;;;;;;;5002859;28;20029;-77
2023/07/16 11:13:56;;;;;;;12.80;2.90;;;;;;;;;;5000192;28;20026;-78
2023/07/16 11:16:22;;;;;;;5.85;2.78;;;;;;;;;;4999106;28;20057;-80
2023/07/16 11:18:50;;;;;;;4.30;2.20;;;;;;;;;;4999712;28;20121;-79
2023/07/16 11:21:19;;;;;;;3.72;2.28;;;;;;;;;;4998412;28;20390;-79
2023/07/16 11:23:45;;;;;;;7.28;3.15;;;;;;;;;;5003583;28;20097;-76
2023/07/16 11:26:11;;;;;;;3.83;2.33;;;;;;;;;;4999318;28;20076;-79
2023/07/16 11:28:41;;;;;;;4.97;2.50;;;;;;;;;;5000700;28;20098;-81
2023/07/16 11:31:15;;;;;;;8.10;3.30;;;;;;;;;;5000038;28;20092;-78
2023/07/16 11:33:47;;;;;;;6.40;2.45;;;;;;;;;;5000087;28;20852;-79
2023/07/16 11:36:17;;;;;;;9.93;3.63;;;;;;;;;;5000533;28;20093;-78
2023/07/16 11:38:43;;;;;;;7.25;2.47;;;;;;;;;;4998337;28;20033;-77
2023/07/16 11:41:09;;;;;;;7.13;2.53;;;;;;;;;;5000154;28;20088;-78
2023/07/16 11:43:36;;;;;;;5.13;2.35;;;;;;;;;;5000143;28;20053;-76
2023/07/16 11:46:02;;;;;;;4.38;2.47;;;;;;;;;;4999812;28;20026;-78
2023/07/16 11:48:28;;;;;;;5.47;2.30;;;;;;;;;;5000831;28;20022;-78
2023/07/16 11:50:54;;;;;;;4.93;2.63;;;;;;;;;;5002954;28;20080;-80
2023/07/16 11:53:20;;;;;;;8.82;2.42;;;;;;;;;;4999026;28;20593;-79
2023/07/16 11:55:46;;;;;;;10.82;2.67;;;;;;;;;;5001969;28;20459;-77
2023/07/16 11:58:12;;;;;;;6.70;2.40;;;;;;;;;;5001129;28;20107;-76
2023/07/16 12:00:38;;;;;;;4.50;2.35;;;;;;;;;;4999882;28;20464;-78
2023/07/16 12:03:04;;;;;;;8.23;3.00;;;;;;;;;;5003253;28;20029;-79
2023/07/16 12:05:30;;;;;;;4.85;2.58;;;;;;;;;;5000543;28;20458;-79
2023/07/16 12:07:56;;;;;;;4.97;2.60;;;;;;;;;;5000211;28;20045;-78
2023/07/16 12:10:22;;;;;;;5.53;2.30;;;;;;;;;;5001346;28;20041;-79
2023/07/16 12:12:48;;;;;;;10.15;2.78;;;;;;;;;;5000376;28;20062;-79
2023/07/16 12:15:14;;;;;;;6.00;2.53;;;;;;;;;;5016228;28;20032;-78
2023/07/16 12:17:40;;;;;;;9.70;2.60;;;;;;;;;;5003087;28;20653;-81
2023/07/16 12:20:06;;;;;;;5.18;2.50;;;;;;;;;;4999544;28;20034;-79
2023/07/16 12:22:36;;;;;;;6.18;2.50;;;;;;;;;;5002219;28;20060;-79
2023/07/16 12:25:02;;;;;;;6.50;2.47;;;;;;;;;;4998460;28;20030;-79
2023/07/16 12:27:30;;;;;;;5.70;2.28;;;;;;;;;;5000188;28;20946;-81
2023/07/16 12:29:58;;;;;;;4.53;2.22;;;;;;;;;;4999939;28;20639;-80
2023/07/16 12:32:24;;;;;;;6.47;2.65;;;;;;;;;;4999963;28;20911;-79
2023/07/16 12:34:54;;;;;;;10.38;2.47;;;;;;;;;;5002802;28;20034;-79
2023/07/16 12:37:20;;;;;;;4.10;2.60;;;;;;;;;;4998535;28;20033;-83
2023/07/16 12:39:46;;;;;;;12.90;3.00;;;;;;;;;;4998327;28;20029;-81
2023/07/16 12:42:12;;;;;;;4.65;2.47;;;;;;;;;;5003580;28;20026;-78
2023/07/16 12:44:38;;;;;;;5.03;2.70;;;;;;;;;;5001404;28;21745;-79
2023/07/16 12:47:05;;;;;;;5.43;2.58;;;;;;;;;;4999475;28;20122;-78
2023/07/16 12:49:31;;;;;;;4.00;2.30;;;;;;;;;;4999116;28;20029;-78
2023/07/16 12:51:57;;;;;;;5.95;2.80;;;;;;;;;;4998974;28;21740;-78
2023/07/16 12:54:25;;;;;;;9.32;2.40;;;;;;;;;;4998384;28;20026;-80
2023/07/16 12:56:51;;;;;;;3.92;2.33;;;;;;;;;;4996310;28;20029;-82
2023/07/16 12:59:17;;;;;;;4.10;2.13;;;;;;;;;;4999876;28;20022;-80
2023/07/16 13:01:43;;;;;;;7.10;3.40;;;;;;;;;;5003016;28;20494;-81
2023/07/16 13:04:09;;;;;;;7.20;2.70;;;;;;;;;;4998294;28;20042;-79
2023/07/16 13:06:35;;;;;;;5.05;2.45;;;;;;;;;;4999812;28;20061;-78
2023/07/16 13:09:01;;;;;;;5.88;3.33;;;;;;;;;;4995567;28;20462;-81
2023/07/16 13:11:27;;;;;;;4.30;2.40;;;;;;;;;;4998629;28;20022;-79
2023/07/16 13:13:53;;;;;;;4.82;2.33;;;;;;;;;;5002569;28;20033;-77
2023/07/16 13:16:19;;;;;;;8.43;2.80;;;;;;;;;;4998087;28;20037;-78
2023/07/16 13:18:45;;;;;;;5.60;2.50;;;;;;;;;;5002338;28;20454;-81
2023/07/16 13:21:11;;;;;;;6.40;2.63;;;;;;;;;;4998251;28;20033;-79
2023/07/16 13:23:39;;;;;;;4.43;2.40;;;;;;;;;;4998228;28;20026;-89
2023/07/16 13:26:10;;;;;;;7.70;2.83;;;;;;;;;;5000233;28;20034;-84
2023/07/16 13:28:39;;;;;;;8.05;3.13;;;;;;;;;;5001786;28;20026;-83
2023/07/16 13:31:04;;;;;;;7.18;3.05;;;;;;;;;;5004172;28;20033;-89
2023/07/16 13:33:30;;;;;;;8.57;2.72;;;;;;;;;;5001505;28;20030;-85
2023/07/16 13:35:59;;;;;;;4.95;2.78;;;;;;;;;;5003517;28;20063;-83
2023/07/16 13:38:25;;;;;;;6.20;3.53;;;;;;;;;;5001726;28;20033;-86
2023/07/16 13:40:51;;;;;;;10.00;4.85;;;;;;;;;;5000752;28;20034;-81
2023/07/16 13:43:19;;;;;;;5.07;2.72;;;;;;;;;;5003680;28;20140;-83
2023/07/16 13:45:48;;;;;;;8.57;2.80;;;;;;;;;;5004228;28;20038;-82
2023/07/16 13:48:14;;;;;;;3.58;2.33;;;;;;;;;;4998610;28;20054;-88
2023/07/16 13:50:40;;;;;;;6.10;2.65;;;;;;;;;;4999654;28;20481;-81
2023/07/16 13:53:08;;;;;;;6.38;2.50;;;;;;;;;;5003115;28;20092;-82
2023/07/16 13:55:34;;;;;;;4.97;2.70;;;;;;;;;;4999161;28;20038;-83
2023/07/16 13:58:00;;;;;;;4.30;2.00;;;;;;;;;;5005738;28;20096;-83
2023/07/16 14:00:26;;;;;;;9.30;2.70;;;;;;;;;;5002893;28;20030;-85
2023/07/16 14:02:54;;;;;;;3.88;2.30;;;;;;;;;;5004133;28;20045;-81
2023/07/16 14:05:23;;;;;;;3.90;2.13;;;;;;;;;;5023394;28;20034;-85
2023/07/16 14:07:53;;;;;;;5.10;3.22;;;;;;;;;;5002305;28;20080;-81
2023/07/16 14:10:22;;;;;;;6.13;2.80;;;;;;;;;;5001759;28;20048;-82
2023/07/16 14:12:48;;;;;;;5.25;2.22;;;;;;;;;;5001099;28;20056;-86
2023/07/16 14:15:14;;;;;;;4.88;2.15;;;;;;;;;;5026614;28;20061;-83
2023/07/16 14:17:40;;;;;;;5.05;2.55;;;;;;;;;;5001261;28;20048;-83
2023/07/16 14:20:06;;;;;;;6.72;2.95;;;;;;;;;;5004136;28;20030;-85
2023/07/16 14:22:35;;;;;;;5.82;2.47;;;;;;;;;;5001149;28;20058;-87
2023/07/16 14:25:01;;;;;;;4.10;2.22;;;;;;;;;;5002101;28;20118;-80
2023/07/16 14:27:27;;;;;;;5.07;2.13;;;;;;;;;;5002373;28;20112;-89
2023/07/16 14:29:52;;;;;;;4.80;2.88;;;;;;;;;;5021866;28;20038;-80
2023/07/16 14:32:19;;;;;;;5.28;2.13;;;;;;;;;;5001238;28;20462;-84
2023/07/16 14:34:47;;;;;;;4.15;2.40;;;;;;;;;;4999748;28;20057;-82
2023/07/16 14:37:13;;;;;;;4.38;2.00;;;;;;;;;;5001579;28;20813;-84
2023/07/16 14:39:39;;;;;;;4.03;2.38;;;;;;;;;;5003186;28;20140;-87